Time;durP1;ratioP1;P1;durP2;ratioP2;P2;SDS_P1;SDS_P2;PMS_P1;PMS_P2;Temp;Humidity;BMP_temperature;BMP_pressure;BME280_temperature;BME280_humidity;BME280_pressure;Samples;Min_cycle;Max_cycle;Signal;HPM_P1;HPM_P2
2023/03/10 00:02:17;;;;;;;3.07;1.57;;;;;;;;;;4902012;29;20517;-78
2023/03/10 00:04:45;;;;;;;4.40;2.20;;;;;;;;;;4917449;29;20473;-78
2023/03/10 00:07:11;;;;;;;4.87;2.20;;;;;;;;;;4918076;29;20487;-79
2023/03/10 00:09:37;;;;;;;5.23;2.10;;;;;;;;;;4901309;29;20491;-78
2023/03/10 00:12:03;;;;;;;1.93;1.80;;;;;;;;;;4904145;29;20455;-80
2023/03/10 00:14:29;;;;;;;1.63;1.40;;;;;;;;;;4917724;29;20566;-79
2023/03/10 00:16:55;;;;;;;2.33;2.10;;;;;;;;;;4918266;29;20590;-78
2023/03/10 00:19:21;;;;;;;6.37;1.60;;;;;;;;;;4919829;29;20776;-79
2023/03/10 00:21:47;;;;;;;2.83;2.00;;;;;;;;;;4919207;29;20454;-79
2023/03/10 00:24:12;;;;;;;2.83;1.20;;;;;;;;;;4912466;29;20991;-79
2023/03/10 00:26:38;;;;;;;3.63;1.77;;;;;;;;;;4918517;29;20506;-79
2023/03/10 00:29:07;;;;;;;2.03;1.93;;;;;;;;;;4915052;29;20451;-78
2023/03/10 00:31:33;;;;;;;4.20;1.47;;;;;;;;;;4918323;29;20576;-79
2023/03/10 00:33:59;;;;;;;2.50;1.80;;;;;;;;;;4915658;29;20472;-79
2023/03/10 00:36:27;;;;;;;3.90;1.53;;;;;;;;;;4914953;29;20438;-77
2023/03/10 00:38:55;;;;;;;4.43;2.40;;;;;;;;;;4914523;29;20408;-79
2023/03/10 00:41:23;;;;;;;2.17;2.10;;;;;;;;;;4916896;29;20444;-79
2023/03/10 00:43:49;;;;;;;1.70;1.60;;;;;;;;;;4915198;29;20434;-77
2023/03/10 00:46:15;;;;;;;2.20;1.97;;;;;;;;;;4919301;29;20473;-79
2023/03/10 00:48:41;;;;;;;3.40;2.60;;;;;;;;;;4920662;29;20437;-77
2023/03/10 00:51:07;;;;;;;3.77;3.47;;;;;;;;;;4907273;29;20505;-77
2023/03/10 00:53:34;;;;;;;2.77;2.33;;;;;;;;;;4922277;29;20597;-77
2023/03/10 00:56:02;;;;;;;1.73;1.73;;;;;;;;;;4917700;29;20482;-78
2023/03/10 00:58:28;;;;;;;3.13;2.60;;;;;;;;;;4920329;29;21315;-79
2023/03/10 01:00:54;;;;;;;2.30;2.10;;;;;;;;;;4916401;29;20450;-77
2023/03/10 01:03:21;;;;;;;2.43;2.33;;;;;;;;;;4922026;29;20497;-78
2023/03/10 01:05:48;;;;;;;5.00;1.67;;;;;;;;;;4917069;29;20454;-78
2023/03/10 01:08:14;;;;;;;1.60;1.60;;;;;;;;;;4920632;29;20451;-78
2023/03/10 01:10:40;;;;;;;1.30;1.23;;;;;;;;;;4918297;29;20459;-78
2023/03/10 01:13:06;;;;;;;1.30;1.30;;;;;;;;;;4917057;29;20474;-78
2023/03/10 01:15:32;;;;;;;2.63;1.63;;;;;;;;;;4919603;29;20561;-78
2023/03/10 01:18:02;;;;;;;1.17;1.17;;;;;;;;;;4921909;29;21042;-80
2023/03/10 01:20:28;;;;;;;1.70;0.93;;;;;;;;;;4927342;29;20451;-78
2023/03/10 01:22:54;;;;;;;2.10;1.40;;;;;;;;;;4921334;29;20469;-78
2023/03/10 01:25:20;;;;;;;1.40;1.33;;;;;;;;;;4925816;29;20462;-78
2023/03/10 01:27:46;;;;;;;0.60;0.60;;;;;;;;;;4927679;29;20495;-77
2023/03/10 01:30:12;;;;;;;0.40;0.40;;;;;;;;;;4925938;29;22051;-78
2023/03/10 01:32:39;;;;;;;1.87;0.60;;;;;;;;;;4911048;29;20551;-79
2023/03/10 01:35:06;;;;;;;0.77;0.77;;;;;;;;;;4926145;29;20617;-79
2023/03/10 01:37:32;;;;;;;0.60;0.60;;;;;;;;;;4925977;29;20517;-79
2023/03/10 01:39:58;;;;;;;0.87;0.87;;;;;;;;;;4926482;29;21118;-76
2023/03/10 01:42:24;;;;;;;1.03;0.57;;;;;;;;;;4927477;29;21017;-79
2023/03/10 01:45:05;;;;;;;1.07;0.77;;;;;;;;;;4923902;29;20454;-78
2023/03/10 01:47:31;;;;;;;1.00;1.00;;;;;;;;;;4907895;29;21000;-77
2023/03/10 01:49:58;;;;;;;0.80;0.80;;;;;;;;;;4926248;29;20463;-77
2023/03/10 01:52:27;;;;;;;1.00;1.00;;;;;;;;;;4927848;29;20554;-80
2023/03/10 01:54:56;;;;;;;1.13;1.03;;;;;;;;;;4957479;29;20469;-78
2023/03/10 01:57:24;;;;;;;1.20;1.00;;;;;;;;;;4959016;29;20454;-78
2023/03/10 01:59:50;;;;;;;1.83;0.93;;;;;;;;;;4955315;29;21020;-79
2023/03/10 02:02:17;;;;;;;1.03;1.03;;;;;;;;;;4953599;29;20442;-79
2023/03/10 02:04:46;;;;;;;1.20;1.20;;;;;;;;;;4944425;28;20445;-79
2023/03/10 02:07:12;;;;;;;1.20;1.07;;;;;;;;;;4944794;29;20469;-77
2023/03/10 02:09:40;;;;;;;2.20;1.37;;;;;;;;;;4944786;28;20455;-78
2023/03/10 02:12:07;;;;;;;1.03;1.03;;;;;;;;;;4943522;28;21015;-78
2023/03/10 02:14:34;;;;;;;3.10;1.53;;;;;;;;;;4943998;29;20477;-78
2023/03/10 02:17:00;;;;;;;2.00;1.80;;;;;;;;;;4945011;29;20520;-79
2023/03/10 02:19:33;;;;;;;1.10;1.10;;;;;;;;;;4907563;29;20470;-76
2023/03/10 02:22:04;;;;;;;1.37;1.00;;;;;;;;;;4937210;29;20835;-77
2023/03/10 02:24:35;;;;;;;3.03;1.27;;;;;;;;;;4915438;29;20460;-78
2023/03/10 02:27:04;;;;;;;2.50;2.30;;;;;;;;;;4944564;29;20505;-77
2023/03/10 02:29:30;;;;;;;1.30;1.30;;;;;;;;;;4941580;28;20493;-79
2023/03/10 02:31:56;;;;;;;1.87;1.77;;;;;;;;;;4940292;29;20577;-77
2023/03/10 02:34:22;;;;;;;3.00;2.50;;;;;;;;;;4940644;29;20478;-78
2023/03/10 02:36:48;;;;;;;2.23;2.20;;;;;;;;;;4941038;29;20464;-79
2023/03/10 02:39:14;;;;;;;2.70;2.70;;;;;;;;;;4940094;29;20477;-78
2023/03/10 02:41:40;;;;;;;3.70;3.40;;;;;;;;;;4940260;29;20453;-77
2023/03/10 02:44:09;;;;;;;2.60;2.50;;;;;;;;;;4922196;29;20469;-77
2023/03/10 02:46:35;;;;;;;2.83;2.63;;;;;;;;;;4941442;29;20545;-77
2023/03/10 02:49:02;;;;;;;2.67;2.40;;;;;;;;;;4938760;29;20568;-78
2023/03/10 02:51:33;;;;;;;1.93;1.93;;;;;;;;;;4939521;29;20453;-78
2023/03/10 02:54:00;;;;;;;2.67;2.47;;;;;;;;;;4921402;29;20463;-77
2023/03/10 02:56:26;;;;;;;2.97;2.87;;;;;;;;;;4921059;29;22324;-78
2023/03/10 02:58:53;;;;;;;2.30;2.20;;;;;;;;;;4921108;29;21006;-77
2023/03/10 03:01:19;;;;;;;2.10;2.10;;;;;;;;;;4921793;29;20459;-78
2023/03/10 03:03:48;;;;;;;2.43;1.80;;;;;;;;;;4921913;29;20439;-78
2023/03/10 03:06:14;;;;;;;1.87;1.77;;;;;;;;;;4921406;29;21372;-78
2023/03/10 03:08:40;;;;;;;2.23;2.00;;;;;;;;;;4922993;29;20466;-78
2023/03/10 03:11:08;;;;;;;1.93;1.83;;;;;;;;;;4902381;29;20467;-78
2023/03/10 03:13:34;;;;;;;2.13;1.93;;;;;;;;;;4923954;29;20490;-78
2023/03/10 03:16:00;;;;;;;1.60;1.47;;;;;;;;;;4919566;29;20530;-77
2023/03/10 03:18:26;;;;;;;1.63;1.53;;;;;;;;;;4923096;29;20443;-77
2023/03/10 03:20:52;;;;;;;3.40;1.63;;;;;;;;;;4918462;29;20496;-77
2023/03/10 03:23:19;;;;;;;2.67;1.30;;;;;;;;;;4919285;29;20439;-76
2023/03/10 03:25:45;;;;;;;2.63;1.60;;;;;;;;;;4920194;29;20450;-79
2023/03/10 03:28:11;;;;;;;1.80;1.27;;;;;;;;;;4921863;29;20455;-78
2023/03/10 03:30:38;;;;;;;1.87;1.73;;;;;;;;;;4918048;29;20942;-77
2023/03/10 03:33:04;;;;;;;2.77;1.60;;;;;;;;;;4918742;29;20466;-78
2023/03/10 03:35:32;;;;;;;1.77;1.67;;;;;;;;;;4923257;29;20569;-78
2023/03/10 03:37:58;;;;;;;1.10;1.10;;;;;;;;;;4920036;29;20530;-78
2023/03/10 03:40:25;;;;;;;1.40;1.27;;;;;;;;;;4921522;29;20447;-79
2023/03/10 03:42:51;;;;;;;2.50;1.23;;;;;;;;;;4902404;29;20978;-79
2023/03/10 03:45:19;;;;;;;1.40;1.30;;;;;;;;;;4921941;29;20454;-79
2023/03/10 03:47:45;;;;;;;2.07;1.90;;;;;;;;;;4919251;29;20542;-79
2023/03/10 03:50:13;;;;;;;2.77;1.90;;;;;;;;;;4923178;29;20471;-79
2023/03/10 03:52:39;;;;;;;2.87;2.27;;;;;;;;;;4936070;29;20518;-79
2023/03/10 03:55:06;;;;;;;4.20;2.00;;;;;;;;;;4924274;29;20911;-79
2023/03/10 03:57:32;;;;;;;2.13;2.13;;;;;;;;;;4918502;29;20447;-78
2023/03/10 03:59:58;;;;;;;1.93;1.83;;;;;;;;;;4921054;29;20447;-79
2023/03/10 04:02:24;;;;;;;2.10;2.00;;;;;;;;;;4918130;29;20447;-79
2023/03/10 04:04:50;;;;;;;2.97;2.77;;;;;;;;;;4919202;29;20439;-79
2023/03/10 04:07:16;;;;;;;3.50;2.23;;;;;;;;;;4919241;29;20493;-79
2023/03/10 04:09:45;;;;;;;1.70;1.60;;;;;;;;;;4901545;29;20442;-78
2023/03/10 04:12:11;;;;;;;1.80;1.80;;;;;;;;;;4920156;29;20951;-79
2023/03/10 04:14:37;;;;;;;3.13;1.63;;;;;;;;;;4924491;29;20509;-79
2023/03/10 04:17:04;;;;;;;4.53;1.80;;;;;;;;;;4920463;29;20970;-80
2023/03/10 04:19:30;;;;;;;2.80;2.53;;;;;;;;;;4924573;29;20510;-80
2023/03/10 04:21:56;;;;;;;2.03;1.93;;;;;;;;;;4916701;29;20986;-81
2023/03/10 04:24:22;;;;;;;2.17;2.17;;;;;;;;;;4923699;29;20514;-79
2023/03/10 04:26:48;;;;;;;2.80;2.80;;;;;;;;;;4920722;29;20466;-79
2023/03/10 04:29:14;;;;;;;3.60;2.00;;;;;;;;;;4924202;29;20457;-79
2023/03/10 04:31:40;;;;;;;1.80;1.70;;;;;;;;;;4917869;29;21351;-78
2023/03/10 04:34:06;;;;;;;2.03;1.93;;;;;;;;;;4921467;29;20474;-79
2023/03/10 04:36:32;;;;;;;2.37;2.30;;;;;;;;;;4918891;29;20458;-78
2023/03/10 04:38:58;;;;;;;8.43;2.73;;;;;;;;;;4921622;29;20530;-79
2023/03/10 04:41:24;;;;;;;2.40;2.30;;;;;;;;;;4913873;29;20554;-79
2023/03/10 04:43:50;;;;;;;2.60;2.40;;;;;;;;;;4921995;29;20534;-80
2023/03/10 04:46:17;;;;;;;3.37;3.07;;;;;;;;;;4918474;29;20814;-79
2023/03/10 04:48:43;;;;;;;6.20;2.03;;;;;;;;;;4922027;29;20546;-79
2023/03/10 04:51:10;;;;;;;2.60;2.50;;;;;;;;;;4918563;29;20517;-79
2023/03/10 04:53:37;;;;;;;4.63;2.40;;;;;;;;;;4921950;29;20482;-79
2023/03/10 04:56:04;;;;;;;1.70;1.60;;;;;;;;;;4920197;29;20455;-79
2023/03/10 04:58:30;;;;;;;2.80;1.70;;;;;;;;;;4924478;29;20447;-78
2023/03/10 05:00:57;;;;;;;2.40;2.10;;;;;;;;;;4920020;29;20489;-79
2023/03/10 05:03:23;;;;;;;2.30;2.20;;;;;;;;;;4922515;29;20906;-79
2023/03/10 05:05:49;;;;;;;1.77;1.77;;;;;;;;;;4916991;29;20446;-79
2023/03/10 05:08:15;;;;;;;4.53;1.67;;;;;;;;;;4923021;29;20461;-80
2023/03/10 05:10:46;;;;;;;1.60;1.50;;;;;;;;;;4921026;29;20451;-79
2023/03/10 05:13:12;;;;;;;2.50;1.70;;;;;;;;;;4924210;29;20450;-78
2023/03/10 05:15:39;;;;;;;1.50;1.50;;;;;;;;;;4915662;29;20459;-79
2023/03/10 05:18:05;;;;;;;4.93;2.20;;;;;;;;;;4928437;29;20482;-79
2023/03/10 05:20:32;;;;;;;2.00;1.70;;;;;;;;;;4925034;29;20961;-77
2023/03/10 05:22:58;;;;;;;2.00;1.47;;;;;;;;;;4923184;29;20428;-78
2023/03/10 05:25:24;;;;;;;1.43;1.20;;;;;;;;;;4923003;29;20462;-78
2023/03/10 05:27:50;;;;;;;2.60;1.63;;;;;;;;;;4924185;29;20454;-78
2023/03/10 05:30:16;;;;;;;7.77;2.33;;;;;;;;;;4921590;29;20447;-80
2023/03/10 05:32:43;;;;;;;1.70;1.60;;;;;;;;;;4925491;29;20441;-80
2023/03/10 05:35:09;;;;;;;3.90;1.90;;;;;;;;;;4921975;29;20554;-77
2023/03/10 05:37:40;;;;;;;4.80;2.33;;;;;;;;;;4927133;29;20427;-79
2023/03/10 05:40:08;;;;;;;4.53;2.30;;;;;;;;;;4927254;29;20439;-79
2023/03/10 05:42:34;;;;;;;2.30;1.93;;;;;;;;;;4934723;29;20478;-79
2023/03/10 05:45:00;;;;;;;5.67;2.30;;;;;;;;;;4929002;29;20448;-78
2023/03/10 05:47:26;;;;;;;3.80;2.50;;;;;;;;;;4921305;29;20465;-80
2023/03/10 05:49:53;;;;;;;2.83;2.27;;;;;;;;;;4917634;29;20982;-79
2023/03/10 05:52:19;;;;;;;10.23;2.40;;;;;;;;;;4920136;29;20477;-80
2023/03/10 05:54:45;;;;;;;4.17;2.20;;;;;;;;;;4924560;29;20478;-79
2023/03/10 05:57:10;;;;;;;3.00;1.80;;;;;;;;;;4918140;29;20469;-79
2023/03/10 05:59:36;;;;;;;2.17;2.00;;;;;;;;;;4924470;29;20447;-79
2023/03/10 06:02:03;;;;;;;6.93;2.10;;;;;;;;;;4919412;29;20561;-79
2023/03/10 06:04:32;;;;;;;5.27;1.70;;;;;;;;;;4925147;29;20915;-81
2023/03/10 06:06:59;;;;;;;5.73;1.70;;;;;;;;;;4920071;29;20871;-80
2023/03/10 06:09:26;;;;;;;1.87;1.57;;;;;;;;;;4926501;29;20980;-80
2023/03/10 06:11:52;;;;;;;1.40;1.40;;;;;;;;;;4924086;29;20973;-79
2023/03/10 06:14:18;;;;;;;2.93;1.73;;;;;;;;;;4926820;29;20581;-78
2023/03/10 06:16:49;;;;;;;5.13;1.40;;;;;;;;;;4923411;29;20529;-80
2023/03/10 06:19:16;;;;;;;8.00;2.40;;;;;;;;;;4925979;29;20426;-79
2023/03/10 06:21:42;;;;;;;1.93;1.40;;;;;;;;;;4921767;29;20465;-78
2023/03/10 06:24:08;;;;;;;1.77;1.67;;;;;;;;;;4900033;29;20800;-81
2023/03/10 06:26:34;;;;;;;3.70;1.60;;;;;;;;;;4906564;29;20466;-80
2023/03/10 06:29:00;;;;;;;4.73;2.37;;;;;;;;;;4926855;29;20498;-82
2023/03/10 06:31:26;;;;;;;4.53;3.00;;;;;;;;;;4922419;29;20493;-80
2023/03/10 06:33:52;;;;;;;6.20;1.57;;;;;;;;;;4924773;29;20463;-77
2023/03/10 06:36:19;;;;;;;3.03;1.47;;;;;;;;;;4922914;29;20565;-82
2023/03/10 06:38:46;;;;;;;4.90;1.77;;;;;;;;;;4920764;29;20453;-79
2023/03/10 06:41:12;;;;;;;1.63;1.53;;;;;;;;;;4924653;29;20439;-80
2023/03/10 06:43:38;;;;;;;3.47;1.43;;;;;;;;;;4924464;29;20506;-80
2023/03/10 06:46:06;;;;;;;2.20;2.00;;;;;;;;;;4926461;29;20459;-80
2023/03/10 06:48:32;;;;;;;4.00;1.93;;;;;;;;;;4912473;29;20861;-79
2023/03/10 06:50:58;;;;;;;6.77;2.07;;;;;;;;;;4901973;29;20443;-80
2023/03/10 06:53:25;;;;;;;3.60;1.47;;;;;;;;;;4921215;29;21268;-79
2023/03/10 06:56:05;;;;;;;5.33;1.83;;;;;;;;;;4922141;29;20482;-79
2023/03/10 06:58:32;;;;;;;2.60;1.67;;;;;;;;;;4921952;29;20952;-79
2023/03/10 07:00:58;;;;;;;2.57;1.53;;;;;;;;;;4923184;29;22028;-81
2023/03/10 07:03:25;;;;;;;6.23;2.33;;;;;;;;;;4919079;29;20465;-79
2023/03/10 07:05:51;;;;;;;3.37;2.33;;;;;;;;;;4922763;29;20438;-80
2023/03/10 07:08:18;;;;;;;3.50;2.13;;;;;;;;;;4922719;29;21099;-79
2023/03/10 07:10:44;;;;;;;6.63;2.30;;;;;;;;;;4924275;29;20443;-79
2023/03/10 07:13:14;;;;;;;2.30;1.70;;;;;;;;;;4917818;29;20473;-81
2023/03/10 07:15:40;;;;;;;4.17;1.80;;;;;;;;;;4913705;29;20470;-80
2023/03/10 07:18:06;;;;;;;3.80;2.00;;;;;;;;;;4925412;29;20487;-81
2023/03/10 07:20:32;;;;;;;2.30;1.70;;;;;;;;;;4927328;29;20747;-80
2023/03/10 07:22:58;;;;;;;3.07;2.00;;;;;;;;;;4918988;29;20447;-80
2023/03/10 07:25:24;;;;;;;5.20;2.20;;;;;;;;;;4928435;29;20486;-80
2023/03/10 07:27:50;;;;;;;1.93;1.83;;;;;;;;;;4924644;29;20446;-79
2023/03/10 07:30:16;;;;;;;6.20;2.50;;;;;;;;;;4928296;29;20746;-79
2023/03/10 07:32:42;;;;;;;3.80;2.23;;;;;;;;;;4932766;29;20716;-80
2023/03/10 07:35:08;;;;;;;8.67;2.50;;;;;;;;;;4938698;29;20462;-77
2023/03/10 07:37:40;;;;;;;4.00;2.30;;;;;;;;;;4925278;29;20439;-80
2023/03/10 07:40:07;;;;;;;2.57;1.80;;;;;;;;;;4928416;29;20411;-79
2023/03/10 07:42:33;;;;;;;4.27;2.00;;;;;;;;;;4924746;29;20435;-79
2023/03/10 07:44:59;;;;;;;4.50;2.53;;;;;;;;;;4911575;29;20418;-81
2023/03/10 07:47:25;;;;;;;3.07;2.50;;;;;;;;;;4928128;29;20465;-80
2023/03/10 07:49:51;;;;;;;3.67;2.13;;;;;;;;;;4924997;29;20447;-80
2023/03/10 07:52:18;;;;;;;4.40;2.50;;;;;;;;;;4910615;29;20494;-79
2023/03/10 07:54:44;;;;;;;3.17;1.73;;;;;;;;;;4924092;29;21058;-79
2023/03/10 07:57:11;;;;;;;1.90;1.73;;;;;;;;;;4916535;29;20533;-80
2023/03/10 07:59:37;;;;;;;3.67;2.17;;;;;;;;;;4918904;29;20466;-80
2023/03/10 08:02:04;;;;;;;4.00;2.87;;;;;;;;;;4906797;29;20864;-78
2023/03/10 08:04:30;;;;;;;3.60;2.13;;;;;;;;;;4908924;29;20875;-78
2023/03/10 08:06:56;;;;;;;4.07;2.00;;;;;;;;;;4925753;29;20519;-81
2023/03/10 08:09:22;;;;;;;3.50;2.10;;;;;;;;;;4925863;29;20502;-79
2023/03/10 08:11:48;;;;;;;5.10;2.80;;;;;;;;;;4926521;29;20439;-79
2023/03/10 08:14:17;;;;;;;9.63;3.17;;;;;;;;;;4925519;29;20491;-77
2023/03/10 08:16:43;;;;;;;11.80;3.27;;;;;;;;;;4909051;29;20478;-80
2023/03/10 08:19:09;;;;;;;3.37;2.90;;;;;;;;;;4926364;29;20557;-80
2023/03/10 08:21:35;;;;;;;5.63;2.70;;;;;;;;;;4929083;29;20470;-82
2023/03/10 08:24:01;;;;;;;7.13;2.27;;;;;;;;;;4923039;29;20461;-82
2023/03/10 08:26:27;;;;;;;4.87;2.37;;;;;;;;;;4928181;29;20447;-80
2023/03/10 08:28:53;;;;;;;3.17;2.43;;;;;;;;;;4926213;29;20586;-81
2023/03/10 08:31:20;;;;;;;3.30;2.10;;;;;;;;;;4935148;29;20450;-79
2023/03/10 08:33:46;;;;;;;6.80;2.77;;;;;;;;;;4936166;29;20423;-79
2023/03/10 08:36:12;;;;;;;3.20;2.57;;;;;;;;;;4908524;29;20446;-80
2023/03/10 08:38:38;;;;;;;3.17;2.13;;;;;;;;;;4915029;29;20419;-81
2023/03/10 08:41:24;;;;;;;2.33;1.90;;;;;;;;;;4925386;29;20843;-79
2023/03/10 08:43:50;;;;;;;2.47;2.27;;;;;;;;;;4896612;29;20553;-79
2023/03/10 08:46:18;;;;;;;4.20;2.47;;;;;;;;;;4905883;29;20439;-81
2023/03/10 08:48:44;;;;;;;4.40;1.97;;;;;;;;;;4922709;29;20702;-80
2023/03/10 08:51:10;;;;;;;6.00;2.93;;;;;;;;;;4927965;29;20450;-81
2023/03/10 08:53:37;;;;;;;6.03;2.00;;;;;;;;;;4924794;29;20510;-81
2023/03/10 08:56:04;;;;;;;4.53;2.43;;;;;;;;;;4910832;29;20689;-79
2023/03/10 08:58:30;;;;;;;3.27;2.43;;;;;;;;;;4924375;29;20439;-83
2023/03/10 09:00:56;;;;;;;4.67;2.47;;;;;;;;;;4926913;29;20438;-81
2023/03/10 09:03:22;;;;;;;3.93;3.03;;;;;;;;;;4924102;29;20546;-81
2023/03/10 09:05:48;;;;;;;11.90;3.27;;;;;;;;;;4927826;29;20510;-81
2023/03/10 09:08:14;;;;;;;6.43;3.17;;;;;;;;;;4923995;29;21036;-83
2023/03/10 09:10:41;;;;;;;3.20;2.60;;;;;;;;;;4927568;29;20423;-81
2023/03/10 09:13:08;;;;;;;5.23;1.63;;;;;;;;;;4924324;29;20443;-81
2023/03/10 09:15:34;;;;;;;4.57;2.93;;;;;;;;;;4927721;29;20814;-80
2023/03/10 09:18:00;;;;;;;3.63;2.23;;;;;;;;;;4923774;29;20542;-80
2023/03/10 09:20:27;;;;;;;5.83;2.30;;;;;;;;;;4928072;29;20427;-81
2023/03/10 09:22:53;;;;;;;4.97;2.50;;;;;;;;;;4922092;29;20439;-79
2023/03/10 09:25:20;;;;;;;2.13;1.90;;;;;;;;;;4936964;29;20423;-81
2023/03/10 09:27:46;;;;;;;3.40;2.20;;;;;;;;;;4927316;29;20434;-81
2023/03/10 09:30:12;;;;;;;5.13;2.07;;;;;;;;;;4927278;29;20426;-81
2023/03/10 09:32:38;;;;;;;2.60;2.37;;;;;;;;;;4909643;29;20525;-82
2023/03/10 09:35:04;;;;;;;2.10;1.90;;;;;;;;;;4923351;29;20562;-81
2023/03/10 09:37:31;;;;;;;2.90;2.10;;;;;;;;;;4926864;29;20427;-79
2023/03/10 09:39:57;;;;;;;3.27;2.00;;;;;;;;;;4926404;29;20819;-79
2023/03/10 09:42:24;;;;;;;3.27;2.10;;;;;;;;;;4930469;29;20431;-81
2023/03/10 09:44:59;;;;;;;2.00;1.90;;;;;;;;;;4912080;29;20531;-82
2023/03/10 09:47:41;;;;;;;1.33;1.33;;;;;;;;;;4928438;29;20433;-79
2023/03/10 09:50:25;;;;;;;4.00;1.97;;;;;;;;;;4926929;29;20451;-82
2023/03/10 09:53:07;;;;;;;2.30;1.53;;;;;;;;;;4922003;29;20466;-81
2023/03/10 09:55:39;;;;;;;2.90;1.83;;;;;;;;;;4932536;29;20700;-79
2023/03/10 09:58:08;;;;;;;4.00;1.87;;;;;;;;;;4931865;29;22662;-81
2023/03/10 10:00:39;;;;;;;2.30;1.63;;;;;;;;;;4934205;29;20415;-80
2023/03/10 10:03:11;;;;;;;3.70;1.70;;;;;;;;;;4930854;29;20450;-82
2023/03/10 10:05:38;;;;;;;2.90;1.87;;;;;;;;;;4921136;29;20428;-82
2023/03/10 10:08:12;;;;;;;5.47;2.33;;;;;;;;;;4910704;29;20973;-81
2023/03/10 10:10:38;;;;;;;4.07;2.13;;;;;;;;;;4932498;29;20495;-81
2023/03/10 10:13:14;;;;;;;4.83;2.20;;;;;;;;;;4926748;29;20834;-80
2023/03/10 10:15:44;;;;;;;3.33;2.37;;;;;;;;;;4921871;29;20481;-80
2023/03/10 10:18:14;;;;;;;2.60;2.40;;;;;;;;;;4914394;29;20535;-81
2023/03/10 10:21:01;;;;;;;2.80;2.10;;;;;;;;;;4930793;29;20513;-82
2023/03/10 10:23:33;;;;;;;3.90;1.63;;;;;;;;;;4924215;29;20474;-79
2023/03/10 10:26:08;;;;;;;3.00;1.47;;;;;;;;;;4939582;28;20542;-80
2023/03/10 10:28:43;;;;;;;4.10;2.03;;;;;;;;;;4911020;29;20430;-79
2023/03/10 10:31:14;;;;;;;5.30;2.80;;;;;;;;;;4920266;29;20423;-79
2023/03/10 10:34:07;;;;;;;2.70;2.00;;;;;;;;;;4948492;29;20397;-83
2023/03/10 10:36:47;;;;;;;2.83;2.10;;;;;;;;;;4931601;29;20239;-83
2023/03/10 10:39:22;;;;;;;4.30;1.50;;;;;;;;;;4941306;29;20426;-83
2023/03/10 10:41:48;;;;;;;7.00;1.43;;;;;;;;;;4931629;29;20541;-82
2023/03/10 10:44:16;;;;;;;2.33;2.13;;;;;;;;;;4943247;29;20462;-84
2023/03/10 10:46:56;;;;;;;4.35;2.05;;;;;;;;;;4912899;29;20495;-81
2023/03/10 10:49:26;;;;;;;2.03;1.67;;;;;;;;;;4943210;29;20191;-81
2023/03/10 10:51:56;;;;;;;1.80;1.30;;;;;;;;;;4928396;29;20447;-83
2023/03/10 10:54:27;;;;;;;2.77;1.63;;;;;;;;;;4931216;29;20538;-81
2023/03/10 10:56:58;;;;;;;3.77;1.50;;;;;;;;;;4925775;29;20482;-83
2023/03/10 10:59:31;;;;;;;2.37;1.50;;;;;;;;;;4929532;29;20430;-82
2023/03/10 11:02:01;;;;;;;8.30;2.80;;;;;;;;;;4924593;29;20837;-82
2023/03/10 11:04:44;;;;;;;3.43;1.07;;;;;;;;;;4935757;29;20415;-83
2023/03/10 11:07:23;;;;;;;8.03;2.07;;;;;;;;;;4930399;29;20514;-83
2023/03/10 11:09:49;;;;;;;4.43;1.80;;;;;;;;;;4935263;29;20419;-82
2023/03/10 11:12:22;;;;;;;6.50;2.10;;;;;;;;;;4933756;29;20449;-81
2023/03/10 11:14:51;;;;;;;4.67;2.90;;;;;;;;;;4921608;29;21071;-81
2023/03/10 11:17:17;;;;;;;3.23;2.27;;;;;;;;;;4929640;29;20443;-82
2023/03/10 11:19:48;;;;;;;4.97;2.90;;;;;;;;;;4932848;29;20961;-83
2023/03/10 11:22:33;;;;;;;1.77;1.67;;;;;;;;;;4922398;29;20455;-81
2023/03/10 11:25:06;;;;;;;6.80;3.80;;;;;;;;;;4932880;29;20433;-83
2023/03/10 11:27:55;;;;;;;2.93;1.70;;;;;;;;;;4904896;29;20496;-84
2023/03/10 11:30:24;;;;;;;2.23;2.07;;;;;;;;;;4922377;29;20427;-82
2023/03/10 11:33:09;;;;;;;2.93;2.03;;;;;;;;;;4929283;29;20511;-79
2023/03/10 11:35:44;;;;;;;2.13;1.20;;;;;;;;;;4928275;29;20616;-81
2023/03/10 11:38:13;;;;;;;1.50;1.00;;;;;;;;;;4919092;29;21077;-82
2023/03/10 11:40:46;;;;;;;2.20;1.53;;;;;;;;;;4930269;29;20446;-81
2023/03/10 11:43:21;;;;;;;3.80;1.90;;;;;;;;;;4923849;29;20438;-80
2023/03/10 11:45:54;;;;;;;6.73;1.47;;;;;;;;;;4929167;29;20445;-82
2023/03/10 11:48:23;;;;;;;1.53;1.00;;;;;;;;;;4920633;29;20782;-84
2023/03/10 11:50:51;;;;;;;7.73;1.80;;;;;;;;;;4929938;29;20441;-81
2023/03/10 11:53:26;;;;;;;1.50;1.40;;;;;;;;;;4926715;29;20769;-78
2023/03/10 11:55:53;;;;;;;1.30;1.20;;;;;;;;;;4930642;29;20510;-78
2023/03/10 11:58:25;;;;;;;1.10;1.10;;;;;;;;;;4925258;29;20451;-78
2023/03/10 12:00:52;;;;;;;1.07;1.07;;;;;;;;;;4903582;29;20506;-77
2023/03/10 12:03:37;;;;;;;1.37;1.37;;;;;;;;;;4911817;29;20869;-78
2023/03/10 12:06:06;;;;;;;2.00;1.27;;;;;;;;;;4923671;29;20439;-79
2023/03/10 12:08:34;;;;;;;1.50;1.40;;;;;;;;;;4927363;29;20457;-78
2023/03/10 12:11:01;;;;;;;1.00;1.00;;;;;;;;;;4923403;29;20493;-78
2023/03/10 12:13:29;;;;;;;0.97;0.97;;;;;;;;;;4927538;29;20722;-78
2023/03/10 12:15:58;;;;;;;1.70;1.57;;;;;;;;;;4923357;29;20470;-81
2023/03/10 12:18:25;;;;;;;6.60;1.57;;;;;;;;;;4926043;29;20563;-80
2023/03/10 12:21:23;;;;;;;3.77;2.10;;;;;;;;;;4927774;29;20930;-81
2023/03/10 12:23:51;;;;;;;2.53;1.80;;;;;;;;;;4875203;29;20428;-79
2023/03/10 12:26:36;;;;;;;1.63;1.63;;;;;;;;;;4906503;29;20679;-80
2023/03/10 12:29:20;;;;;;;3.67;2.10;;;;;;;;;;4927104;29;20915;-79
2023/03/10 12:31:50;;;;;;;2.17;1.57;;;;;;;;;;4923830;29;20957;-78
2023/03/10 12:34:22;;;;;;;3.23;1.60;;;;;;;;;;4925095;29;20484;-80
2023/03/10 12:36:52;;;;;;;6.10;2.20;;;;;;;;;;4922761;29;20446;-77
2023/03/10 12:39:27;;;;;;;1.40;1.40;;;;;;;;;;4909659;29;20434;-80
2023/03/10 12:42:00;;;;;;;1.60;1.50;;;;;;;;;;4923508;29;20446;-79
2023/03/10 12:44:32;;;;;;;2.13;1.63;;;;;;;;;;4926549;29;20498;-78
2023/03/10 12:47:07;;;;;;;2.43;1.60;;;;;;;;;;4922647;29;20434;-75
2023/03/10 12:49:37;;;;;;;4.47;1.43;;;;;;;;;;4926750;29;20484;-76
2023/03/10 12:52:06;;;;;;;1.97;1.20;;;;;;;;;;4922601;29;20985;-78
2023/03/10 12:54:51;;;;;;;1.13;1.00;;;;;;;;;;4926259;29;20467;-80
2023/03/10 12:57:29;;;;;;;2.30;1.30;;;;;;;;;;4923406;29;20664;-78
2023/03/10 13:00:34;;;;;;;1.20;1.10;;;;;;;;;;4910483;29;20445;-81
2023/03/10 13:03:00;;;;;;;2.77;1.40;;;;;;;;;;4845669;29;20779;-78
2023/03/10 13:05:30;;;;;;;0.83;0.83;;;;;;;;;;4849486;29;20443;-79
2023/03/10 13:07:59;;;;;;;1.60;0.90;;;;;;;;;;4874355;29;20439;-79
2023/03/10 13:10:25;;;;;;;1.23;0.70;;;;;;;;;;4926183;29;20435;-79
2023/03/10 13:12:56;;;;;;;0.70;0.70;;;;;;;;;;4922711;29;20455;-79
2023/03/10 13:15:24;;;;;;;1.17;0.87;;;;;;;;;;4927543;29;20565;-78
2023/03/10 13:17:50;;;;;;;1.40;1.13;;;;;;;;;;4923504;29;20435;-78
2023/03/10 13:20:16;;;;;;;3.63;1.43;;;;;;;;;;4926333;29;20613;-77
2023/03/10 13:22:56;;;;;;;1.33;1.23;;;;;;;;;;4919343;29;20435;-78
2023/03/10 13:25:22;;;;;;;0.70;0.70;;;;;;;;;;4923872;29;20434;-77
2023/03/10 13:27:48;;;;;;;0.70;0.70;;;;;;;;;;4922902;29;20454;-77
2023/03/10 13:30:18;;;;;;;1.00;1.00;;;;;;;;;;4926317;29;20435;-78
2023/03/10 13:32:51;;;;;;;2.37;1.33;;;;;;;;;;4922963;29;20641;-78
2023/03/10 13:35:22;;;;;;;0.90;0.90;;;;;;;;;;4904750;29;21031;-79
2023/03/10 13:38:19;;;;;;;1.30;1.30;;;;;;;;;;4923240;29;20962;-80
2023/03/10 13:40:49;;;;;;;1.17;0.90;;;;;;;;;;4902454;29;20435;-81
2023/03/10 13:43:24;;;;;;;1.40;1.30;;;;;;;;;;4922841;29;20447;-79
2023/03/10 13:45:55;;;;;;;0.90;0.90;;;;;;;;;;4927047;29;20494;-80
2023/03/10 13:48:22;;;;;;;1.13;1.03;;;;;;;;;;4927716;29;20800;-79
2023/03/10 13:51:02;;;;;;;1.80;1.00;;;;;;;;;;4927243;29;20435;-80
2023/03/10 13:53:28;;;;;;;0.70;0.70;;;;;;;;;;4922519;29;20473;-80
2023/03/10 13:55:56;;;;;;;0.90;0.90;;;;;;;;;;4924359;29;20744;-80
2023/03/10 13:58:22;;;;;;;0.70;0.70;;;;;;;;;;4926982;29;20425;-79
2023/03/10 14:00:50;;;;;;;1.57;1.57;;;;;;;;;;4909220;29;20454;-79
2023/03/10 14:03:16;;;;;;;0.80;0.80;;;;;;;;;;4923695;29;20435;-83
2023/03/10 14:05:46;;;;;;;1.30;0.70;;;;;;;;;;4927539;29;20434;-81
2023/03/10 14:08:32;;;;;;;0.80;0.80;;;;;;;;;;4905771;29;20965;-81
2023/03/10 14:11:17;;;;;;;0.80;0.80;;;;;;;;;;4924081;29;20438;-80
2023/03/10 14:13:44;;;;;;;1.17;0.73;;;;;;;;;;4926679;29;20922;-80
2023/03/10 14:16:11;;;;;;;1.17;1.17;;;;;;;;;;4923542;29;20469;-79
2023/03/10 14:18:39;;;;;;;0.97;0.93;;;;;;;;;;4925214;29;20419;-77
2023/03/10 14:21:23;;;;;;;2.70;0.90;;;;;;;;;;4904958;29;20435;-78
2023/03/10 14:23:50;;;;;;;0.63;0.63;;;;;;;;;;4921439;29;20411;-79
2023/03/10 14:26:16;;;;;;;0.70;0.70;;;;;;;;;;4924601;29;20787;-80
2023/03/10 14:28:43;;;;;;;0.60;0.60;;;;;;;;;;4929930;29;20423;-79
2023/03/10 14:31:22;;;;;;;0.70;0.70;;;;;;;;;;4925058;29;20523;-78
2023/03/10 14:33:48;;;;;;;1.17;1.17;;;;;;;;;;4928544;29;20786;-80
2023/03/10 14:36:14;;;;;;;0.50;0.50;;;;;;;;;;4908063;29;21353;-77
2023/03/10 14:38:40;;;;;;;0.70;0.70;;;;;;;;;;4929342;29;20433;-77
2023/03/10 14:41:06;;;;;;;0.83;0.83;;;;;;;;;;4921366;29;20454;-77
2023/03/10 14:43:34;;;;;;;0.93;0.93;;;;;;;;;;4905665;29;20416;-78
2023/03/10 14:46:01;;;;;;;1.00;1.00;;;;;;;;;;4924370;29;20447;-77
2023/03/10 14:48:33;;;;;;;1.17;1.17;;;;;;;;;;4930482;29;20570;-77
2023/03/10 14:50:59;;;;;;;1.20;1.20;;;;;;;;;;4926887;29;20569;-80
2023/03/10 14:53:26;;;;;;;1.07;1.07;;;;;;;;;;4927491;29;20462;-76